sensor_id;sensor_type;location;lat;lon;timestamp;pressure;altitude;pressure_sealevel;temperature;humidity
19811;BME280;10065;49.632;8.346;2024-01-10T07:16:30;101668.22;;;-1.03;51.61
19811;BME280;10065;49.632;8.346;2024-01-10T07:19:10;101679.38;;;-0.98;51.17
19811;BME280;10065;49.632;8.346;2024-01-10T07:22:04;101683.50;;;-0.91;51.11
19811;BME280;10065;49.632;8.346;2024-01-10T07:24:44;101682.66;;;-0.92;51.05
19811;BME280;10065;49.632;8.346;2024-01-10T07:27:18;101685.25;;;-0.92;50.90
19811;BME280;10065;49.632;8.346;2024-01-10T07:29:46;101694.81;;;-0.92;50.88
19811;BME280;10065;49.632;8.346;2024-01-10T07:32:15;101693.06;;;-0.92;50.90
19811;BME280;10065;49.632;8.346;2024-01-10T07:34:43;101694.78;;;-0.91;50.76
19811;BME280;10065;49.632;8.346;2024-01-10T07:37:13;101697.34;;;-0.89;50.84
19811;BME280;10065;49.632;8.346;2024-01-10T07:39:43;101695.44;;;-0.84;50.71
19811;BME280;10065;49.632;8.346;2024-01-10T07:42:11;101700.53;;;-0.80;51.07
19811;BME280;10065;49.632;8.346;2024-01-10T07:44:38;101707.38;;;-0.77;50.85
19811;BME280;10065;49.632;8.346;2024-01-10T07:47:06;101710.78;;;-0.75;50.93
19811;BME280;10065;49.632;8.346;2024-01-10T07:49:35;101703.88;;;-0.76;50.66
19811;BME280;10065;49.632;8.346;2024-01-10T07:52:04;101715.16;;;-0.76;50.73
19811;BME280;10065;49.632;8.346;2024-01-10T07:54:31;101713.28;;;-0.70;50.72
19811;BME280;10065;49.632;8.346;2024-01-10T07:56:59;101715.03;;;-0.71;50.51
19811;BME280;10065;49.632;8.346;2024-01-10T07:59:27;101715.81;;;-0.69;50.80
19811;BME280;10065;49.632;8.346;2024-01-10T08:01:56;101709.69;;;-0.68;50.83
19811;BME280;10065;49.632;8.346;2024-01-10T08:04:25;101714.84;;;-0.65;50.87
19811;BME280;10065;49.632;8.346;2024-01-10T08:06:55;101714.75;;;-0.62;50.64
19811;BME280;10065;49.632;8.346;2024-01-10T08:09:23;101716.34;;;-0.58;50.56
19811;BME280;10065;49.632;8.346;2024-01-10T08:11:51;101720.56;;;-0.54;50.63
19811;BME280;10065;49.632;8.346;2024-01-10T08:14:18;101727.38;;;-0.50;50.19
19811;BME280;10065;49.632;8.346;2024-01-10T08:16:46;101726.47;;;-0.49;50.33
19811;BME280;10065;49.632;8.346;2024-01-10T08:19:15;101721.06;;;-0.43;50.12
19811;BME280;10065;49.632;8.346;2024-01-10T08:21:42;101714.84;;;-0.37;50.00
19811;BME280;10065;49.632;8.346;2024-01-10T08:24:12;101722.44;;;-0.31;49.85
19811;BME280;10065;49.632;8.346;2024-01-10T08:26:40;101723.09;;;-0.24;49.77
19811;BME280;10065;49.632;8.346;2024-01-10T08:29:07;101722.16;;;-0.22;49.80
19811;BME280;10065;49.632;8.346;2024-01-10T08:31:35;101716.00;;;-0.19;49.63
19811;BME280;10065;49.632;8.346;2024-01-10T08:34:03;101721.00;;;-0.13;49.56
19811;BME280;10065;49.632;8.346;2024-01-10T08:36:31;101708.78;;;-0.11;49.21
19811;BME280;10065;49.632;8.346;2024-01-10T08:38:59;101727.94;;;-0.12;49.09
19811;BME280;10065;49.632;8.346;2024-01-10T08:41:28;101716.44;;;-0.07;48.88
19811;BME280;10065;49.632;8.346;2024-01-10T08:43:56;101726.69;;;-0.01;48.70
19811;BME280;10065;49.632;8.346;2024-01-10T08:46:24;101719.72;;;0.00;48.93
19811;BME280;10065;49.632;8.346;2024-01-10T08:48:52;101717.88;;;0.02;48.93
19811;BME280;10065;49.632;8.346;2024-01-10T08:51:20;101714.38;;;0.03;48.81
19811;BME280;10065;49.632;8.346;2024-01-10T08:53:47;101722.31;;;0.00;48.95
19811;BME280;10065;49.632;8.346;2024-01-10T08:56:15;101719.66;;;0.02;49.11
19811;BME280;10065;49.632;8.346;2024-01-10T08:58:45;101723.91;;;0.04;49.15
19811;BME280;10065;49.632;8.346;2024-01-10T09:01:13;101719.47;;;0.08;48.79
19811;BME280;10065;49.632;8.346;2024-01-10T09:03:41;101722.75;;;0.13;48.92
19811;BME280;10065;49.632;8.346;2024-01-10T09:06:09;101718.19;;;0.19;48.72
19811;BME280;10065;49.632;8.346;2024-01-10T09:08:38;101731.75;;;0.29;48.49
19811;BME280;10065;49.632;8.346;2024-01-10T09:11:07;101728.88;;;0.36;48.30
19811;BME280;10065;49.632;8.346;2024-01-10T09:13:34;101734.81;;;0.42;48.23
19811;BME280;10065;49.632;8.346;2024-01-10T09:16:06;101724.06;;;0.51;48.37
19811;BME280;10065;49.632;8.346;2024-01-10T09:18:34;101731.44;;;0.63;48.09
19811;BME280;10065;49.632;8.346;2024-01-10T09:21:04;101726.78;;;0.71;48.00
19811;BME280;10065;49.632;8.346;2024-01-10T09:23:31;101729.03;;;0.82;48.00
19811;BME280;10065;49.632;8.346;2024-01-10T09:25:59;101727.16;;;0.85;48.07
19811;BME280;10065;49.632;8.346;2024-01-10T09:28:27;101739.31;;;0.86;47.72
19811;BME280;10065;49.632;8.346;2024-01-10T09:30:55;101726.28;;;0.86;47.74
19811;BME280;10065;49.632;8.346;2024-01-10T09:33:24;101735.56;;;0.93;48.03
19811;BME280;10065;49.632;8.346;2024-01-10T09:35:52;101731.88;;;0.99;47.78
19811;BME280;10065;49.632;8.346;2024-01-10T09:38:20;101735.91;;;1.07;47.68
19811;BME280;10065;49.632;8.346;2024-01-10T09:40:48;101738.88;;;1.22;47.08
19811;BME280;10065;49.632;8.346;2024-01-10T09:43:16;101739.81;;;1.42;46.98
19811;BME280;10065;49.632;8.346;2024-01-10T09:45:46;101735.47;;;1.65;46.27
19811;BME280;10065;49.632;8.346;2024-01-10T09:48:15;101737.09;;;1.89;45.88
19811;BME280;10065;49.632;8.346;2024-01-10T09:50:46;101737.41;;;2.23;45.26
19811;BME280;10065;49.632;8.346;2024-01-10T09:53:21;101729.09;;;2.54;44.48
19811;BME280;10065;49.632;8.346;2024-01-10T09:55:50;101734.19;;;2.78;44.17
19811;BME280;10065;49.632;8.346;2024-01-10T09:58:18;101736.69;;;2.99;43.83
19811;BME280;10065;49.632;8.346;2024-01-10T10:00:46;101739.13;;;3.23;43.55
19811;BME280;10065;49.632;8.346;2024-01-10T10:03:16;101740.41;;;3.33;43.25
19811;BME280;10065;49.632;8.346;2024-01-10T10:05:46;101746.56;;;3.32;43.50
19811;BME280;10065;49.632;8.346;2024-01-10T10:08:14;101737.78;;;3.33;42.92
19811;BME280;10065;49.632;8.346;2024-01-10T10:10:48;101741.03;;;3.38;43.24
19811;BME280;10065;49.632;8.346;2024-01-10T10:13:26;101741.31;;;3.51;43.04
19811;BME280;10065;49.632;8.346;2024-01-10T10:15:58;101740.66;;;4.35;41.66
19811;BME280;10065;49.632;8.346;2024-01-10T10:18:26;101731.25;;;5.77;39.01
19811;BME280;10065;49.632;8.346;2024-01-10T10:21:11;101727.13;;;6.18;37.55
19811;BME280;10065;49.632;8.346;2024-01-10T10:23:41;101728.06;;;7.04;36.24
19811;BME280;10065;49.632;8.346;2024-01-10T10:26:10;101726.28;;;7.33;35.53
19811;BME280;10065;49.632;8.346;2024-01-10T10:28:41;101734.63;;;7.39;35.19
19811;BME280;10065;49.632;8.346;2024-01-10T10:31:10;101724.78;;;6.58;36.06
19811;BME280;10065;49.632;8.346;2024-01-10T10:33:38;101715.66;;;6.19;36.65
19811;BME280;10065;49.632;8.346;2024-01-10T10:36:07;101716.78;;;6.15;36.66
19811;BME280;10065;49.632;8.346;2024-01-10T10:38:37;101725.03;;;6.09;37.01
19811;BME280;10065;49.632;8.346;2024-01-10T10:41:05;101721.25;;;5.67;37.80
19811;BME280;10065;49.632;8.346;2024-01-10T10:43:38;101721.31;;;5.82;37.87
19811;BME280;10065;49.632;8.346;2024-01-10T10:46:08;101727.88;;;8.55;34.69
19811;BME280;10065;49.632;8.346;2024-01-10T10:48:36;101711.91;;;11.40;30.77
19811;BME280;10065;49.632;8.346;2024-01-10T10:51:05;101710.78;;;13.31;28.29
19811;BME280;10065;49.632;8.346;2024-01-10T10:53:34;101711.19;;;14.24;27.08
19811;BME280;10065;49.632;8.346;2024-01-10T10:56:06;101719.69;;;13.60;27.18
19811;BME280;10065;49.632;8.346;2024-01-10T10:58:35;101711.75;;;12.69;27.93
19811;BME280;10065;49.632;8.346;2024-01-10T11:01:04;101703.44;;;12.00;28.56
19811;BME280;10065;49.632;8.346;2024-01-10T11:03:35;101709.81;;;11.54;28.79
19811;BME280;10065;49.632;8.346;2024-01-10T11:06:04;101715.94;;;11.12;29.35
19811;BME280;10065;49.632;8.346;2024-01-10T11:08:35;101716.41;;;10.26;30.35
19811;BME280;10065;49.632;8.346;2024-01-10T11:11:10;101705.56;;;9.34;31.40
19811;BME280;10065;49.632;8.346;2024-01-10T11:14:06;101717.41;;;8.92;32.18
19811;BME280;10065;49.632;8.346;2024-01-10T11:16:57;101706.06;;;9.02;32.01
19811;BME280;10065;49.632;8.346;2024-01-10T11:22:36;101697.91;;;11.49;28.73
19811;BME280;10065;49.632;8.346;2024-01-10T11:25:08;101687.25;;;12.44;27.20
19811;BME280;10065;49.632;8.346;2024-01-10T11:27:38;101686.88;;;12.79;26.33
19811;BME280;10065;49.632;8.346;2024-01-10T11:30:06;101687.66;;;12.70;26.43
19811;BME280;10065;49.632;8.346;2024-01-10T11:32:35;101681.31;;;13.23;25.46
19811;BME280;10065;49.632;8.346;2024-01-10T11:35:05;101679.72;;;14.18;24.75
19811;BME280;10065;49.632;8.346;2024-01-10T11:37:39;101675.63;;;14.43;24.48
19811;BME280;10065;49.632;8.346;2024-01-10T11:40:08;101679.88;;;14.07;24.54
19811;BME280;10065;49.632;8.346;2024-01-10T11:42:44;101673.81;;;12.04;25.90
19811;BME280;10065;49.632;8.346;2024-01-10T11:45:36;101685.75;;;9.87;28.45
19811;BME280;10065;49.632;8.346;2024-01-10T11:48:07;101683.22;;;8.38;30.30
19811;BME280;10065;49.632;8.346;2024-01-10T11:50:35;101688.06;;;7.11;31.64
19811;BME280;10065;49.632;8.346;2024-01-10T11:53:03;101691.56;;;6.25;32.93
19811;BME280;10065;49.632;8.346;2024-01-10T11:55:50;101690.09;;;5.60;34.34
19811;BME280;10065;49.632;8.346;2024-01-10T11:58:23;101697.22;;;5.11;35.05
19811;BME280;10065;49.632;8.346;2024-01-10T12:00:51;101690.13;;;4.64;36.12
19811;BME280;10065;49.632;8.346;2024-01-10T12:03:21;101686.28;;;4.37;36.96
19811;BME280;10065;49.632;8.346;2024-01-10T12:05:53;101691.09;;;4.11;37.10
19811;BME280;10065;49.632;8.346;2024-01-10T12:08:23;101689.53;;;3.90;37.33
19811;BME280;10065;49.632;8.346;2024-01-10T12:10:51;101687.19;;;3.67;37.75
19811;BME280;10065;49.632;8.346;2024-01-10T12:13:18;101688.56;;;3.57;38.39
19811;BME280;10065;49.632;8.346;2024-01-10T12:15:48;101685.16;;;3.55;38.96
19811;BME280;10065;49.632;8.346;2024-01-10T12:18:15;101693.09;;;3.53;39.50
19811;BME280;10065;49.632;8.346;2024-01-10T12:20:44;101694.09;;;3.51;39.65
19811;BME280;10065;49.632;8.346;2024-01-10T12:23:12;101691.00;;;3.43;39.56
19811;BME280;10065;49.632;8.346;2024-01-10T12:25:39;101689.56;;;3.35;39.47
19811;BME280;10065;49.632;8.346;2024-01-10T12:28:07;101691.69;;;3.27;39.62
19811;BME280;10065;49.632;8.346;2024-01-10T12:30:35;101684.19;;;3.20;40.07
19811;BME280;10065;49.632;8.346;2024-01-10T12:33:05;101687.75;;;3.19;40.25
19811;BME280;10065;49.632;8.346;2024-01-10T12:35:33;101680.97;;;3.15;40.33
19811;BME280;10065;49.632;8.346;2024-01-10T12:38:00;101677.41;;;3.16;40.56
19811;BME280;10065;49.632;8.346;2024-01-10T12:40:31;101675.78;;;3.13;40.54
19811;BME280;10065;49.632;8.346;2024-01-10T12:43:02;101672.50;;;3.08;40.44
19811;BME280;10065;49.632;8.346;2024-01-10T12:45:31;101668.22;;;3.07;41.09
19811;BME280;10065;49.632;8.346;2024-01-10T12:47:59;101662.97;;;3.07;40.97
19811;BME280;10065;49.632;8.346;2024-01-10T12:50:28;101665.50;;;3.09;41.29
19811;BME280;10065;49.632;8.346;2024-01-10T12:52:56;101656.72;;;3.10;41.29
19811;BME280;10065;49.632;8.346;2024-01-10T12:55:26;101655.72;;;3.12;40.98
19811;BME280;10065;49.632;8.346;2024-01-10T12:57:54;101661.09;;;3.09;40.86
19811;BME280;10065;49.632;8.346;2024-01-10T13:00:26;101662.97;;;3.07;41.11
19811;BME280;10065;49.632;8.346;2024-01-10T13:02:53;101657.72;;;3.07;41.19
19811;BME280;10065;49.632;8.346;2024-01-10T13:05:21;101655.88;;;3.09;41.37
19811;BME280;10065;49.632;8.346;2024-01-10T13:07:50;101667.56;;;3.02;41.24
19811;BME280;10065;49.632;8.346;2024-01-10T13:10:18;101665.84;;;3.01;41.23
19811;BME280;10065;49.632;8.346;2024-01-10T13:12:46;101662.63;;;2.96;41.41
19811;BME280;10065;49.632;8.346;2024-01-10T13:15:14;101653.03;;;2.95;41.87
19811;BME280;10065;49.632;8.346;2024-01-10T13:17:42;101665.53;;;2.90;41.35
19811;BME280;10065;49.632;8.346;2024-01-10T13:20:10;101667.28;;;2.89;41.75
19811;BME280;10065;49.632;8.346;2024-01-10T13:22:38;101661.88;;;2.92;42.01
19811;BME280;10065;49.632;8.346;2024-01-10T13:25:08;101663.66;;;2.92;41.94
19811;BME280;10065;49.632;8.346;2024-01-10T13:27:36;101662.19;;;2.86;41.71
19811;BME280;10065;49.632;8.346;2024-01-10T13:30:05;101673.44;;;2.88;42.34
19811;BME280;10065;49.632;8.346;2024-01-10T13:32:33;101665.94;;;2.81;42.30
19811;BME280;10065;49.632;8.346;2024-01-10T13:35:01;101662.47;;;2.80;41.99
19811;BME280;10065;49.632;8.346;2024-01-10T13:37:29;101666.78;;;2.81;41.84
19811;BME280;10065;49.632;8.346;2024-01-10T13:39:58;101663.31;;;2.81;42.07
19811;BME280;10065;49.632;8.346;2024-01-10T13:42:27;101669.31;;;2.83;42.08
19811;BME280;10065;49.632;8.346;2024-01-10T13:44:55;101677.16;;;2.83;42.20
19811;BME280;10065;49.632;8.346;2024-01-10T13:47:23;101672.03;;;2.81;42.38
19811;BME280;10065;49.632;8.346;2024-01-10T13:49:51;101683.31;;;2.82;42.25
19811;BME280;10065;49.632;8.346;2024-01-10T13:52:19;101675.56;;;2.80;42.39
19811;BME280;10065;49.632;8.346;2024-01-10T13:54:47;101683.31;;;2.82;42.75
19811;BME280;10065;49.632;8.346;2024-01-10T13:57:15;101675.47;;;2.82;42.37
19811;BME280;10065;49.632;8.346;2024-01-10T13:59:44;101672.72;;;2.85;42.33
19811;BME280;10065;49.632;8.346;2024-01-10T14:02:13;101673.81;;;2.81;42.74
19811;BME280;10065;49.632;8.346;2024-01-10T14:04:42;101683.31;;;2.82;43.17
19811;BME280;10065;49.632;8.346;2024-01-10T14:07:11;101681.66;;;2.81;42.82
19811;BME280;10065;49.632;8.346;2024-01-10T14:09:39;101686.97;;;2.79;42.89
19811;BME280;10065;49.632;8.346;2024-01-10T14:12:06;101685.19;;;2.80;42.89
19811;BME280;10065;49.632;8.346;2024-01-10T14:14:34;101682.75;;;2.75;42.88
19811;BME280;10065;49.632;8.346;2024-01-10T14:17:03;101682.75;;;2.75;42.72
19811;BME280;10065;49.632;8.346;2024-01-10T14:19:31;101685.31;;;2.77;43.02
19811;BME280;10065;49.632;8.346;2024-01-10T14:21:59;101687.31;;;2.72;43.00
19811;BME280;10065;49.632;8.346;2024-01-10T14:24:39;101680.50;;;2.68;43.04
19811;BME280;10065;49.632;8.346;2024-01-10T14:27:07;101686.59;;;2.68;43.19
19811;BME280;10065;49.632;8.346;2024-01-10T14:29:37;101681.47;;;2.65;43.25
19811;BME280;10065;49.632;8.346;2024-01-10T14:32:06;101685.16;;;2.61;43.48
19811;BME280;10065;49.632;8.346;2024-01-10T14:34:43;101687.00;;;2.59;43.53
19811;BME280;10065;49.632;8.346;2024-01-10T14:37:13;101681.69;;;2.60;43.70
19811;BME280;10065;49.632;8.346;2024-01-10T14:39:43;101680.78;;;2.61;44.03
19811;BME280;10065;49.632;8.346;2024-01-10T14:42:11;101685.00;;;2.64;43.97
19811;BME280;10065;49.632;8.346;2024-01-10T14:44:40;101685.16;;;2.61;43.98
19811;BME280;10065;49.632;8.346;2024-01-10T14:47:09;101686.13;;;2.58;44.16
19811;BME280;10065;49.632;8.346;2024-01-10T14:49:38;101681.88;;;2.56;44.10
19811;BME280;10065;49.632;8.346;2024-01-10T14:52:06;101683.78;;;2.52;44.10
19811;BME280;10065;49.632;8.346;2024-01-10T14:54:34;101684.91;;;2.47;43.95
19811;BME280;10065;49.632;8.346;2024-01-10T14:57:02;101689.44;;;2.43;44.43
19811;BME280;10065;49.632;8.346;2024-01-10T14:59:30;101692.00;;;2.45;44.35
19811;BME280;10065;49.632;8.346;2024-01-10T15:02:14;101693.81;;;2.43;44.35
19811;BME280;10065;49.632;8.346;2024-01-10T15:04:42;101692.97;;;2.42;44.52
19811;BME280;10065;49.632;8.346;2024-01-10T15:07:11;101703.50;;;2.41;44.38
19811;BME280;10065;49.632;8.346;2024-01-10T15:09:39;101704.47;;;2.38;44.59
19811;BME280;10065;49.632;8.346;2024-01-10T15:12:10;101707.88;;;2.40;44.53
19811;BME280;10065;49.632;8.346;2024-01-10T15:14:39;101712.41;;;2.37;44.70
19811;BME280;10065;49.632;8.346;2024-01-10T15:17:08;101717.56;;;2.38;44.75
19811;BME280;10065;49.632;8.346;2024-01-10T15:19:39;101709.72;;;2.38;44.95
19811;BME280;10065;49.632;8.346;2024-01-10T15:22:08;101719.31;;;2.38;44.97
19811;BME280;10065;49.632;8.346;2024-01-10T15:24:35;101715.22;;;2.32;44.98
19811;BME280;10065;49.632;8.346;2024-01-10T15:27:04;101723.19;;;2.29;45.13
19811;BME280;10065;49.632;8.346;2024-01-10T15:29:37;101712.94;;;2.24;45.45
19811;BME280;10065;49.632;8.346;2024-01-10T15:32:06;101717.44;;;2.21;45.39
19811;BME280;10065;49.632;8.346;2024-01-10T15:34:34;101713.09;;;2.20;45.30
19811;BME280;10065;49.632;8.346;2024-01-10T15:37:03;101719.34;;;2.17;45.48
19811;BME280;10065;49.632;8.346;2024-01-10T15:39:31;101719.47;;;2.14;45.64
19811;BME280;10065;49.632;8.346;2024-01-10T15:41:59;101719.50;;;2.13;45.56
19811;BME280;10065;49.632;8.346;2024-01-10T15:44:27;101718.06;;;2.06;45.98
19811;BME280;10065;49.632;8.346;2024-01-10T15:46:56;101722.59;;;2.02;45.57
19811;BME280;10065;49.632;8.346;2024-01-10T15:49:24;101720.03;;;2.01;45.63
19811;BME280;10065;49.632;8.346;2024-01-10T15:51:52;101727.09;;;1.99;45.52
19811;BME280;10065;49.632;8.346;2024-01-10T15:54:22;101728.22;;;1.93;45.71
19811;BME280;10065;49.632;8.346;2024-01-10T15:56:50;101735.25;;;1.91;45.91
19811;BME280;10065;49.632;8.346;2024-01-10T15:59:18;101727.47;;;1.89;45.99
19811;BME280;10065;49.632;8.346;2024-01-10T16:01:46;101739.75;;;1.87;46.25
19811;BME280;10065;49.632;8.346;2024-01-10T16:04:14;101737.28;;;1.84;46.05
19811;BME280;10065;49.632;8.346;2024-01-10T16:06:42;101746.91;;;1.84;46.33
19811;BME280;10065;49.632;8.346;2024-01-10T16:09:10;101743.53;;;1.80;46.32
19811;BME280;10065;49.632;8.346;2024-01-10T16:11:43;101754.91;;;1.79;46.35
19811;BME280;10065;49.632;8.346;2024-01-10T16:14:11;101759.34;;;1.77;46.47
19811;BME280;10065;49.632;8.346;2024-01-10T16:16:38;101749.88;;;1.75;46.57
19811;BME280;10065;49.632;8.346;2024-01-10T16:19:06;101755.28;;;1.70;46.59
19811;BME280;10065;49.632;8.346;2024-01-10T16:21:34;101764.94;;;1.68;46.81
19811;BME280;10065;49.632;8.346;2024-01-10T16:24:02;101755.47;;;1.66;46.86
19811;BME280;10065;49.632;8.346;2024-01-10T16:26:30;101754.63;;;1.65;46.78
19811;BME280;10065;49.632;8.346;2024-01-10T16:29:00;101751.16;;;1.65;47.04
19811;BME280;10065;49.632;8.346;2024-01-10T16:31:28;101753.88;;;1.62;47.04
19811;BME280;10065;49.632;8.346;2024-01-10T16:33:55;101750.41;;;1.61;47.19
19811;BME280;10065;49.632;8.346;2024-01-10T16:36:23;101754.78;;;1.61;47.07
19811;BME280;10065;49.632;8.346;2024-01-10T16:38:51;101752.16;;;1.61;47.14
19811;BME280;10065;49.632;8.346;2024-01-10T16:41:21;101752.34;;;1.56;47.42
19811;BME280;10065;49.632;8.346;2024-01-10T16:43:49;101742.81;;;1.55;47.24
19811;BME280;10065;49.632;8.346;2024-01-10T16:46:18;101742.84;;;1.54;47.29
19811;BME280;10065;49.632;8.346;2024-01-10T16:48:46;101756.91;;;1.51;47.35
19811;BME280;10065;49.632;8.346;2024-01-10T16:51:14;101758.75;;;1.49;47.44
19811;BME280;10065;49.632;8.346;2024-01-10T16:53:42;101757.03;;;1.48;47.52
19811;BME280;10065;49.632;8.346;2024-01-10T16:56:10;101751.00;;;1.46;47.70
19811;BME280;10065;49.632;8.346;2024-01-10T16:58:38;101749.34;;;1.43;47.73
19811;BME280;10065;49.632;8.346;2024-01-10T17:01:06;101753.72;;;1.43;47.76
19811;BME280;10065;49.632;8.346;2024-01-10T17:03:35;101756.34;;;1.43;47.69
19811;BME280;10065;49.632;8.346;2024-01-10T17:06:03;101759.00;;;1.41;47.93
19811;BME280;10065;49.632;8.346;2024-01-10T17:08:31;101762.47;;;1.42;48.02
19811;BME280;10065;49.632;8.346;2024-01-10T17:11:01;101766.78;;;1.43;47.94
19811;BME280;10065;49.632;8.346;2024-01-10T17:13:30;101759.09;;;1.40;48.03
19811;BME280;10065;49.632;8.346;2024-01-10T17:15:57;101764.44;;;1.37;47.83
19811;BME280;10065;49.632;8.346;2024-01-10T17:18:26;101765.22;;;1.39;48.00
19811;BME280;10065;49.632;8.346;2024-01-10T17:20:56;101764.31;;;1.40;47.96
19811;BME280;10065;49.632;8.346;2024-01-10T17:23:24;101763.53;;;1.38;47.87
19811;BME280;10065;49.632;8.346;2024-01-10T17:25:51;101764.53;;;1.34;48.02
19811;BME280;10065;49.632;8.346;2024-01-10T17:28:21;101770.66;;;1.33;48.14
19811;BME280;10065;49.632;8.346;2024-01-10T17:30:49;101769.75;;;1.34;48.07
19811;BME280;10065;49.632;8.346;2024-01-10T17:33:17;101774.97;;;1.34;48.09
19811;BME280;10065;49.632;8.346;2024-01-10T17:35:48;101766.47;;;1.29;48.08
19811;BME280;10065;49.632;8.346;2024-01-10T17:38:17;101769.19;;;1.26;48.17
19811;BME280;10065;49.632;8.346;2024-01-10T17:40:45;101772.72;;;1.25;48.34
19811;BME280;10065;49.632;8.346;2024-01-10T17:43:14;101766.72;;;1.23;48.48
19811;BME280;10065;49.632;8.346;2024-01-10T17:45:42;101778.06;;;1.22;48.61
19811;BME280;10065;49.632;8.346;2024-01-10T17:48:10;101769.53;;;1.17;48.86
19811;BME280;10065;49.632;8.346;2024-01-10T17:50:40;101772.19;;;1.15;48.69
19811;BME280;10065;49.632;8.346;2024-01-10T17:53:08;101772.34;;;1.12;48.80
19811;BME280;10065;49.632;8.346;2024-01-10T17:55:37;101770.66;;;1.09;48.91
19811;BME280;10065;49.632;8.346;2024-01-10T17:58:05;101771.56;;;1.08;49.08
19811;BME280;10065;49.632;8.346;2024-01-10T18:00:33;101777.72;;;1.07;49.06
19811;BME280;10065;49.632;8.346;2024-01-10T18:03:01;101770.66;;;1.09;49.29
19811;BME280;10065;49.632;8.346;2024-01-10T18:05:29;101776.75;;;1.10;49.01
19811;BME280;10065;49.632;8.346;2024-01-10T18:07:57;101776.69;;;1.11;49.39
19811;BME280;10065;49.632;8.346;2024-01-10T18:10:25;101771.56;;;1.08;49.46
19811;BME280;10065;49.632;8.346;2024-01-10T18:12:54;101764.69;;;1.06;49.35
19811;BME280;10065;49.632;8.346;2024-01-10T18:15:23;101777.03;;;1.02;49.86
19811;BME280;10065;49.632;8.346;2024-01-10T18:17:51;101785.81;;;1.00;50.02
19811;BME280;10065;49.632;8.346;2024-01-10T18:20:19;101783.25;;;0.98;50.17
19811;BME280;10065;49.632;8.346;2024-01-10T18:22:47;101782.50;;;0.96;50.43
19811;BME280;10065;49.632;8.346;2024-01-10T18:25:15;101777.41;;;0.92;50.82
19811;BME280;10065;49.632;8.346;2024-01-10T18:27:43;101786.16;;;0.91;50.72
19811;BME280;10065;49.632;8.346;2024-01-10T18:30:12;101786.28;;;0.88;50.85
19811;BME280;10065;49.632;8.346;2024-01-10T18:32:40;101781.88;;;0.88;50.86
19811;BME280;10065;49.632;8.346;2024-01-10T18:35:08;101782.69;;;0.90;51.17
19811;BME280;10065;49.632;8.346;2024-01-10T18:37:36;101779.22;;;0.90;51.01
19811;BME280;10065;49.632;8.346;2024-01-10T18:40:05;101788.03;;;0.87;51.39
19811;BME280;10065;49.632;8.346;2024-01-10T18:42:34;101791.56;;;0.86;51.46
19811;BME280;10065;49.632;8.346;2024-01-10T18:45:02;101790.47;;;0.92;51.52
19811;BME280;10065;49.632;8.346;2024-01-10T18:47:31;101786.91;;;0.94;51.55
19811;BME280;10065;49.632;8.346;2024-01-10T18:49:59;101785.31;;;0.90;51.83
19811;BME280;10065;49.632;8.346;2024-01-10T18:52:27;101796.72;;;0.88;51.93
19811;BME280;10065;49.632;8.346;2024-01-10T18:54:54;101797.56;;;0.88;52.04
19811;BME280;10065;49.632;8.346;2024-01-10T18:57:22;101799.41;;;0.86;52.09
19811;BME280;10065;49.632;8.346;2024-01-10T18:59:50;101800.28;;;0.85;51.98
19811;BME280;10065;49.632;8.346;2024-01-10T19:02:18;101791.66;;;0.83;52.32
19811;BME280;10065;49.632;8.346;2024-01-10T19:04:47;101790.84;;;0.81;52.53
19811;BME280;10065;49.632;8.346;2024-01-10T19:07:15;101790.84;;;0.81;52.70
19811;BME280;10065;49.632;8.346;2024-01-10T19:09:43;101784.94;;;0.76;52.60
19811;BME280;10065;49.632;8.346;2024-01-10T19:12:10;101791.06;;;0.75;52.65
19811;BME280;10065;49.632;8.346;2024-01-10T19:14:38;101798.09;;;0.73;52.89
19811;BME280;10065;49.632;8.346;2024-01-10T19:17:06;101795.53;;;0.71;52.90
19811;BME280;10065;49.632;8.346;2024-01-10T19:19:34;101795.50;;;0.73;52.72
19811;BME280;10065;49.632;8.346;2024-01-10T19:22:06;101800.63;;;0.76;52.55
19811;BME280;10065;49.632;8.346;2024-01-10T19:24:34;101796.44;;;0.70;52.45
19811;BME280;10065;49.632;8.346;2024-01-10T19:27:02;101802.66;;;0.68;52.88
19811;BME280;10065;49.632;8.346;2024-01-10T19:29:30;101794.00;;;0.66;52.69
19811;BME280;10065;49.632;8.346;2024-01-10T19:31:58;101794.09;;;0.63;52.85
19811;BME280;10065;49.632;8.346;2024-01-10T19:34:26;101795.94;;;0.61;52.54
19811;BME280;10065;49.632;8.346;2024-01-10T19:36:54;101795.97;;;0.59;52.55
19811;BME280;10065;49.632;8.346;2024-01-10T19:39:23;101795.13;;;0.59;52.54
19811;BME280;10065;49.632;8.346;2024-01-10T19:41:51;101793.41;;;0.58;52.51
19811;BME280;10065;49.632;8.346;2024-01-10T19:44:20;101796.94;;;0.57;52.72
19811;BME280;10065;49.632;8.346;2024-01-10T19:46:48;101798.72;;;0.55;52.63
19811;BME280;10065;49.632;8.346;2024-01-10T19:49:16;101811.69;;;0.58;52.54
19811;BME280;10065;49.632;8.346;2024-01-10T19:51:44;101802.16;;;0.57;52.49
19811;BME280;10065;49.632;8.346;2024-01-10T19:54:12;101798.72;;;0.55;52.56
19811;BME280;10065;49.632;8.346;2024-01-10T19:56:41;101802.25;;;0.54;52.51
19811;BME280;10065;49.632;8.346;2024-01-10T19:59:09;101802.38;;;0.51;52.43
19811;BME280;10065;49.632;8.346;2024-01-10T20:01:37;101808.53;;;0.48;52.57
19811;BME280;10065;49.632;8.346;2024-01-10T20:04:04;101816.41;;;0.47;52.72
19811;BME280;10065;49.632;8.346;2024-01-10T20:06:32;101811.19;;;0.47;52.79
19811;BME280;10065;49.632;8.346;2024-01-10T20:09:00;101813.72;;;0.50;52.58
19811;BME280;10065;49.632;8.346;2024-01-10T20:11:29;101820.69;;;0.49;52.66
19811;BME280;10065;49.632;8.346;2024-01-10T20:13:59;101822.44;;;0.49;52.81
19811;BME280;10065;49.632;8.346;2024-01-10T20:16:26;101835.53;;;0.47;52.83
19811;BME280;10065;49.632;8.346;2024-01-10T20:18:54;101832.13;;;0.45;52.60
19811;BME280;10065;49.632;8.346;2024-01-10T20:21:22;101833.00;;;0.44;52.76
19811;BME280;10065;49.632;8.346;2024-01-10T20:23:50;101837.50;;;0.41;52.76
19811;BME280;10065;49.632;8.346;2024-01-10T20:26:18;101841.06;;;0.38;52.93